Time;durP1;ratioP1;P1;durP2;ratioP2;P2;SDS_P1;SDS_P2;PMS_P1;PMS_P2;Temp;Humidity;BMP_temperature;BMP_pressure;BME280_temperature;BME280_humidity;BME280_pressure;Samples;Min_cycle;Max_cycle;Signal;HPM_P1;HPM_P2
2023/08/24 00:00:59;;;;;;;8.48;5.43;;;26.20;72.20;;;;;;5074073;28;20048;-69
2023/08/24 00:04:03;;;;;;;5.10;4.57;;;26.20;72.40;;;;;;5061244;28;20052;-68
2023/08/24 00:07:07;;;;;;;7.82;5.57;;;26.10;72.60;;;;;;5073721;28;20752;-68
2023/08/24 00:10:12;;;;;;;9.02;5.20;;;26.00;73.30;;;;;;5073852;28;20043;-69
2023/08/24 00:13:16;;;;;;;7.25;5.60;;;25.90;74.20;;;;;;5073449;28;20060;-68
2023/08/24 00:16:20;;;;;;;7.93;5.68;;;25.90;74.70;;;;;;5072264;28;20044;-68
2023/08/24 00:19:42;;;;;;;9.48;5.25;;;25.80;75.00;;;;;;5073334;28;20048;-69
2023/08/24 00:22:50;;;;;;;9.10;5.60;;;25.90;74.40;;;;;;5072681;28;20055;-69
2023/08/24 00:25:54;;;;;;;7.57;4.88;;;25.90;74.20;;;;;;5073227;28;20043;-69
2023/08/24 00:28:58;;;;;;;6.60;4.82;;;25.90;74.40;;;;;;5073095;28;20047;-69
2023/08/24 00:32:02;;;;;;;6.97;5.65;;;25.90;74.40;;;;;;5060368;28;20051;-69
2023/08/24 00:35:09;;;;;;;9.00;5.22;;;25.80;74.70;;;;;;5060951;28;20035;-69
2023/08/24 00:38:12;;;;;;;7.97;5.30;;;25.90;74.80;;;;;;5073288;28;20051;-69
2023/08/24 00:41:17;;;;;;;7.13;5.65;;;25.80;74.20;;;;;;5060631;28;20047;-70
2023/08/24 00:44:21;;;;;;;8.45;5.35;;;25.80;74.10;;;;;;5073057;28;20052;-70
2023/08/24 00:47:25;;;;;;;8.63;5.38;;;25.80;73.30;;;;;;5060278;28;20298;-69
2023/08/24 00:50:29;;;;;;;8.20;4.72;;;25.90;73.60;;;;;;5072642;28;20043;-69
2023/08/24 00:53:34;;;;;;;5.95;3.95;;;25.90;71.60;;;;;;5072408;28;20590;-69
2023/08/24 00:56:38;;;;;;;5.70;4.50;;;25.90;71.20;;;;;;5072662;28;20055;-70
2023/08/24 00:59:42;;;;;;;8.93;4.93;;;25.80;70.80;;;;;;5072745;28;20063;-69
2023/08/24 01:02:47;;;;;;;9.80;5.10;;;25.90;71.70;;;;;;5072551;28;20784;-69
2023/08/24 01:05:52;;;;;;;7.43;5.10;;;25.90;71.00;;;;;;5072551;28;20431;-69
2023/08/24 01:08:57;;;;;;;6.35;4.57;;;25.90;71.00;;;;;;5072484;28;20035;-69
2023/08/24 01:12:13;;;;;;;7.55;4.18;;;25.80;71.80;;;;;;5059914;28;20052;-70
2023/08/24 01:15:37;;;;;;;5.20;3.97;;;25.60;71.80;;;;;;5072829;28;20032;-69
2023/08/24 01:18:42;;;;;;;5.18;4.13;;;25.50;72.00;;;;;;5060235;28;20063;-69
2023/08/24 01:21:47;;;;;;;7.95;5.53;;;25.50;71.60;;;;;;5059924;28;20055;-69
2023/08/24 01:25:00;;;;;;;8.98;5.60;;;25.40;73.60;;;;;;5071851;28;20043;-69
2023/08/24 01:28:05;;;;;;;5.07;3.88;;;25.40;75.40;;;;;;5059407;28;20506;-68
2023/08/24 01:31:13;;;;;;;5.28;4.05;;;25.40;72.30;;;;;;5059692;28;20059;-69
2023/08/24 01:34:16;;;;;;;5.57;4.82;;;25.30;72.50;;;;;;5071761;28;20052;-69
2023/08/24 01:37:21;;;;;;;4.88;3.47;;;25.20;72.70;;;;;;5071579;28;20043;-69
2023/08/24 01:40:30;;;;;;;6.57;4.63;;;25.10;72.50;;;;;;5071946;28;20509;-68
2023/08/24 01:43:36;;;;;;;7.88;4.78;;;25.10;74.60;;;;;;5059043;28;20043;-69
2023/08/24 01:46:43;;;;;;;9.10;5.10;;;24.90;74.30;;;;;;5071952;28;20107;-68
2023/08/24 01:49:48;;;;;;;15.05;6.68;;;24.90;76.30;;;;;;5071621;28;20043;-68
2023/08/24 01:52:52;;;;;;;8.77;5.82;;;24.90;78.60;;;;;;5071223;28;20051;-68
2023/08/24 01:55:56;;;;;;;8.43;5.82;;;24.90;78.50;;;;;;5071624;28;20390;-69
2023/08/24 01:59:00;;;;;;;8.25;5.78;;;24.80;80.20;;;;;;5059125;28;20040;-69
2023/08/24 02:02:05;;;;;;;9.27;6.30;;;24.70;80.00;;;;;;5058997;28;20059;-69
2023/08/24 02:05:09;;;;;;;16.27;6.43;;;24.70;80.90;;;;;;5071300;28;20384;-68
2023/08/24 02:08:13;;;;;;;11.45;6.20;;;24.70;81.10;;;;;;5059098;28;20043;-68
2023/08/24 02:11:17;;;;;;;9.77;6.20;;;24.50;81.60;;;;;;5070849;28;20039;-68
2023/08/24 02:14:21;;;;;;;13.88;6.60;;;24.40;82.40;;;;;;5071231;28;20403;-68
2023/08/24 02:17:26;;;;;;;9.00;6.43;;;24.30;83.20;;;;;;5071222;28;20059;-68
2023/08/24 02:20:30;;;;;;;9.82;6.57;;;24.20;83.50;;;;;;5071189;28;20390;-68
2023/08/24 02:23:34;;;;;;;7.30;6.07;;;24.20;83.50;;;;;;5070591;28;20043;-68
2023/08/24 02:26:37;;;;;;;11.85;7.05;;;24.20;83.60;;;;;;5058788;28;20047;-68
2023/08/24 02:29:42;;;;;;;10.60;5.95;;;24.10;84.70;;;;;;5058407;28;20059;-68
2023/08/24 02:32:46;;;;;;;8.68;5.88;;;24.00;85.20;;;;;;5070748;28;20036;-69
2023/08/24 02:35:50;;;;;;;10.50;6.35;;;23.90;84.80;;;;;;5071288;28;20044;-68
2023/08/24 02:38:54;;;;;;;9.18;6.20;;;23.90;85.30;;;;;;5058302;28;20047;-68
2023/08/24 02:41:58;;;;;;;11.88;6.63;;;23.80;84.90;;;;;;5058196;28;20494;-67
2023/08/24 02:45:02;;;;;;;9.00;6.10;;;23.90;84.70;;;;;;5070941;28;20044;-67
2023/08/24 02:48:09;;;;;;;12.25;6.15;;;23.80;83.50;;;;;;5071000;28;20043;-69
2023/08/24 02:51:13;;;;;;;9.70;5.93;;;23.70;84.10;;;;;;5070998;28;20035;-69
2023/08/24 02:54:18;;;;;;;7.85;5.80;;;23.70;84.20;;;;;;5070390;28;20047;-69
2023/08/24 02:57:22;;;;;;;7.75;5.68;;;23.70;84.00;;;;;;5058554;28;20056;-69
2023/08/24 03:00:26;;;;;;;12.23;7.05;;;23.60;84.30;;;;;;5070811;28;20506;-69
2023/08/24 03:03:30;;;;;;;13.18;7.65;;;23.60;86.50;;;;;;5070672;28;20047;-69
2023/08/24 03:06:33;;;;;;;10.50;6.60;;;23.60;88.00;;;;;;5058149;28;20043;-69
2023/08/24 03:09:37;;;;;;;10.60;7.88;;;23.50;89.30;;;;;;5070751;28;20044;-69
2023/08/24 03:12:41;;;;;;;10.30;8.35;;;23.50;91.30;;;;;;5057997;28;20039;-69
2023/08/24 03:15:46;;;;;;;8.80;7.03;;;23.50;92.60;;;;;;5058157;28;20044;-69
2023/08/24 03:18:50;;;;;;;15.70;7.43;;;23.50;91.90;;;;;;5058373;28;20047;-69
2023/08/24 03:21:55;;;;;;;13.38;7.97;;;23.40;91.80;;;;;;5058042;28;20039;-69
2023/08/24 03:24:59;;;;;;;12.60;8.52;;;23.40;93.20;;;;;;5057871;28;20044;-69
2023/08/24 03:28:03;;;;;;;11.30;7.72;;;23.30;93.10;;;;;;5058263;28;20051;-69
2023/08/24 03:31:08;;;;;;;11.43;7.80;;;23.40;93.20;;;;;;5070405;28;20044;-69
2023/08/24 03:34:12;;;;;;;11.02;7.70;;;23.30;93.70;;;;;;5070586;28;20494;-69
2023/08/24 03:37:16;;;;;;;12.88;7.68;;;23.30;93.50;;;;;;5070563;28;20506;-69
2023/08/24 03:40:20;;;;;;;9.50;7.15;;;23.30;93.40;;;;;;5070663;28;20534;-68
2023/08/24 03:43:25;;;;;;;14.07;7.20;;;23.40;93.00;;;;;;5057923;28;20059;-69
2023/08/24 03:46:29;;;;;;;10.75;7.00;;;23.40;92.70;;;;;;5057641;28;20384;-69
2023/08/24 03:49:32;;;;;;;9.35;6.70;;;23.40;92.40;;;;;;5058096;28;20470;-68
2023/08/24 03:52:36;;;;;;;13.73;6.47;;;23.40;92.70;;;;;;5073777;28;20059;-68
2023/08/24 03:55:40;;;;;;;12.07;7.57;;;23.30;93.00;;;;;;5061707;28;20048;-67
2023/08/24 03:58:44;;;;;;;12.35;7.53;;;23.30;93.40;;;;;;5061457;28;20039;-69
2023/08/24 04:01:48;;;;;;;13.00;7.88;;;23.40;93.40;;;;;;5061289;28;20055;-69
2023/08/24 04:04:54;;;;;;;11.43;7.57;;;23.40;93.50;;;;;;5073556;28;20411;-69
2023/08/24 04:08:00;;;;;;;12.63;8.07;;;23.00;95.50;;;;;;5073786;28;20059;-69
2023/08/24 04:11:04;;;;;;;13.93;8.18;;;22.80;96.10;;;;;;5073812;28;20047;-69
2023/08/24 04:14:09;;;;;;;13.20;8.10;;;22.40;98.70;;;;;;5061169;28;20391;-69
2023/08/24 04:17:13;;;;;;;12.10;8.00;;;22.20;99.80;;;;;;5074081;28;20059;-70
2023/08/24 04:20:17;;;;;;;14.90;8.02;;;22.10;99.90;;;;;;5060945;28;20048;-69
2023/08/24 04:23:26;;;;;;;14.73;8.00;;;22.00;99.90;;;;;;5073237;28;20043;-69
2023/08/24 04:26:30;;;;;;;12.60;8.13;;;21.90;99.90;;;;;;5073712;28;20114;-69
2023/08/24 04:29:34;;;;;;;15.23;8.85;;;21.90;99.90;;;;;;5073256;28;20387;-68
2023/08/24 04:32:38;;;;;;;12.77;8.23;;;21.90;99.90;;;;;;5072952;28;20032;-69
2023/08/24 04:35:42;;;;;;;16.67;8.55;;;22.00;99.90;;;;;;5061158;28;20502;-68
2023/08/24 04:38:46;;;;;;;13.80;8.45;;;21.90;99.90;;;;;;5073216;28;20047;-69
2023/08/24 04:41:50;;;;;;;14.60;8.90;;;21.90;99.90;;;;;;5072847;28;20513;-68
2023/08/24 04:44:54;;;;;;;23.48;9.80;;;21.90;99.90;;;;;;5060633;28;20047;-69
2023/08/24 04:48:01;;;;;;;18.17;9.02;;;22.00;99.90;;;;;;5073049;28;20427;-70
2023/08/24 04:51:04;;;;;;;21.20;8.68;;;22.00;99.90;;;;;;5072785;28;20474;-69
2023/08/24 04:54:09;;;;;;;14.40;9.23;;;22.00;99.90;;;;;;5072908;28;20052;-69
2023/08/24 04:57:14;;;;;;;13.98;8.90;;;22.10;99.90;;;;;;5093739;28;20046;-69
2023/08/24 05:00:18;;;;;;;14.25;9.25;;;22.20;99.90;;;;;;5092195;28;20039;-69
2023/08/24 05:03:22;;;;;;;16.88;9.55;;;22.30;99.90;;;;;;5108408;28;20043;-69
2023/08/24 05:06:27;;;;;;;15.80;9.18;;;22.40;99.90;;;;;;5098924;28;20063;-69
2023/08/24 05:09:31;;;;;;;28.02;10.82;;;22.40;99.90;;;;;;5072625;28;20039;-68
2023/08/24 05:12:35;;;;;;;28.63;11.02;;;22.50;99.90;;;;;;5100662;28;20113;-69
2023/08/24 05:15:39;;;;;;;32.15;11.68;;;22.60;99.90;;;;;;5095598;28;20047;-69
2023/08/24 05:18:43;;;;;;;29.23;10.50;;;22.80;99.90;;;;;;5093397;28;20115;-69
2023/08/24 05:21:47;;;;;;;29.38;10.40;;;22.90;99.90;;;;;;5086929;28;20509;-69
2023/08/24 05:24:51;;;;;;;20.08;8.70;;;23.40;99.90;;;;;;5091494;28;20031;-69
2023/08/24 05:27:55;;;;;;;19.63;8.88;;;25.30;99.90;;;;;;5088871;28;20051;-69
2023/08/24 05:30:59;;;;;;;23.50;8.20;;;27.20;99.40;;;;;;5088733;28;20051;-69
2023/08/24 05:34:03;;;;;;;18.65;8.55;;;28.90;95.80;;;;;;5094780;28;20035;-70
2023/08/24 05:37:07;;;;;;;30.85;9.05;;;30.00;93.10;;;;;;5092159;28;20395;-69
2023/08/24 05:40:11;;;;;;;20.50;8.27;;;30.70;91.50;;;;;;5090751;28;20490;-69
2023/08/24 05:43:15;;;;;;;19.02;8.00;;;31.70;89.90;;;;;;5078706;28;20043;-70
2023/08/24 05:46:20;;;;;;;22.15;7.63;;;32.50;86.80;;;;;;5092167;28;20031;-70
2023/08/24 05:49:24;;;;;;;18.10;7.70;;;33.60;84.00;;;;;;5072316;28;20044;-69
2023/08/24 05:52:28;;;;;;;14.82;7.28;;;34.10;81.10;;;;;;5100660;28;20035;-69
2023/08/24 05:55:32;;;;;;;13.45;6.53;;;34.50;79.50;;;;;;5085347;28;20043;-69
2023/08/24 05:58:36;;;;;;;13.75;6.75;;;35.20;79.00;;;;;;5071701;28;20039;-69
2023/08/24 06:01:41;;;;;;;14.27;6.50;;;36.00;76.60;;;;;;5077092;28;20039;-69
2023/08/24 06:04:45;;;;;;;13.70;6.50;;;36.50;74.90;;;;;;5086809;28;20043;-69
2023/08/24 06:07:49;;;;;;;8.27;6.75;;;36.20;74.60;;;;;;5090358;28;20043;-70
2023/08/24 06:10:53;;;;;;;11.23;6.88;;;36.20;73.40;;;;;;5087734;28;20051;-70
2023/08/24 06:13:57;;;;;;;10.02;6.18;;;36.40;73.30;;;;;;5079462;28;20047;-71
2023/08/24 06:17:01;;;;;;;12.63;6.72;;;37.00;72.90;;;;;;5091743;28;20047;-70
2023/08/24 06:20:10;;;;;;;15.00;6.55;;;36.80;74.20;;;;;;5078995;28;20043;-70
2023/08/24 06:23:16;;;;;;;14.38;7.35;;;34.40;75.20;;;;;;5089230;28;20037;-70
2023/08/24 06:26:21;;;;;;;14.65;6.18;;;34.30;76.60;;;;;;5090717;28;20043;-70
2023/08/24 06:29:27;;;;;;;6.75;6.13;;;35.30;75.30;;;;;;5099136;28;20043;-70
2023/08/24 06:32:31;;;;;;;10.05;6.25;;;35.90;73.90;;;;;;5100337;28;20043;-70
2023/08/24 06:35:35;;;;;;;8.98;6.25;;;36.80;73.10;;;;;;5090773;28;20114;-70
2023/08/24 06:38:39;;;;;;;12.30;5.63;;;37.10;71.70;;;;;;5090619;28;20564;-70
2023/08/24 06:41:43;;;;;;;9.18;5.70;;;37.10;71.40;;;;;;5088554;28;20051;-70
2023/08/24 06:44:49;;;;;;;11.23;6.07;;;37.80;71.00;;;;;;5090588;28;20034;-70
2023/08/24 06:47:54;;;;;;;13.30;5.85;;;38.00;70.00;;;;;;5088627;28;20043;-70
2023/08/24 06:50:59;;;;;;;15.23;5.68;;;38.20;70.00;;;;;;5090580;28;20047;-68
2023/08/24 06:54:03;;;;;;;8.82;6.13;;;38.70;69.90;;;;;;5091987;28;20406;-70
2023/08/24 06:57:07;;;;;;;10.35;6.00;;;35.90;71.80;;;;;;5087619;28;20601;-70
2023/08/24 07:00:14;;;;;;;12.43;5.80;;;35.90;71.50;;;;;;5090799;28;20043;-69
2023/08/24 07:03:19;;;;;;;8.20;5.85;;;36.60;71.40;;;;;;5095090;28;20035;-70
2023/08/24 07:06:23;;;;;;;30.02;9.38;;;37.90;69.80;;;;;;5090106;28;20509;-70
2023/08/24 07:09:27;;;;;;;48.15;12.75;;;38.70;68.00;;;;;;5089610;28;20067;-70
2023/08/24 07:12:31;;;;;;;18.95;6.63;;;39.40;66.70;;;;;;5077275;28;20028;-69
2023/08/24 07:15:35;;;;;;;11.23;5.28;;;39.60;66.10;;;;;;5084057;28;20051;-70
2023/08/24 07:18:39;;;;;;;11.00;5.55;;;39.80;65.90;;;;;;5093029;28;20043;-69
2023/08/24 07:21:43;;;;;;;10.80;5.53;;;40.10;65.20;;;;;;5084365;28;20505;-70
2023/08/24 07:24:52;;;;;;;7.80;5.28;;;38.10;66.60;;;;;;5090455;28;20047;-70
2023/08/24 07:27:58;;;;;;;9.82;5.32;;;35.70;70.20;;;;;;5092610;28;20045;-69
2023/08/24 07:31:10;;;;;;;9.13;5.22;;;36.10;70.20;;;;;;5092825;28;20043;-69
2023/08/24 07:34:15;;;;;;;8.50;4.97;;;36.30;70.60;;;;;;5093501;28;20047;-69
2023/08/24 07:37:19;;;;;;;12.60;5.75;;;36.70;70.10;;;;;;5093801;28;20530;-70
2023/08/24 07:40:23;;;;;;;8.45;5.70;;;36.80;69.70;;;;;;5093927;28;20389;-69
2023/08/24 07:43:27;;;;;;;12.23;5.78;;;37.60;67.90;;;;;;5093302;28;20051;-69
2023/08/24 07:46:31;;;;;;;8.73;4.97;;;39.00;67.00;;;;;;5093588;28;20035;-69
2023/08/24 07:49:36;;;;;;;7.53;5.10;;;40.10;66.80;;;;;;5089800;28;20047;-69
2023/08/24 07:52:42;;;;;;;5.35;4.80;;;38.80;67.20;;;;;;5079780;28;20047;-70
2023/08/24 07:55:47;;;;;;;6.00;5.30;;;39.70;66.60;;;;;;5093834;28;20044;-68
2023/08/24 07:58:51;;;;;;;5.82;5.05;;;37.30;67.90;;;;;;5093124;28;20035;-68
2023/08/24 08:01:55;;;;;;;12.52;5.43;;;37.80;69.00;;;;;;5093133;28;20055;-69
2023/08/24 08:04:59;;;;;;;5.25;4.75;;;39.00;68.20;;;;;;5092735;28;20047;-70
2023/08/24 08:08:04;;;;;;;7.20;5.03;;;39.80;66.60;;;;;;5090967;28;20059;-71
2023/08/24 08:11:08;;;;;;;6.20;4.68;;;40.90;65.60;;;;;;5091106;28;20031;-70
2023/08/24 08:14:12;;;;;;;7.60;4.72;;;42.00;65.60;;;;;;5085841;28;20039;-69
2023/08/24 08:17:16;;;;;;;6.05;4.90;;;41.90;64.20;;;;;;5098513;28;20047;-70
2023/08/24 08:20:20;;;;;;;6.22;4.65;;;42.50;63.90;;;;;;5093955;28;20039;-70
2023/08/24 08:23:24;;;;;;;7.18;4.60;;;44.20;62.70;;;;;;5084712;28;20054;-70
2023/08/24 08:26:29;;;;;;;8.95;4.70;;;42.50;63.30;;;;;;5092495;28;20061;-69
2023/08/24 08:29:33;;;;;;;7.43;5.00;;;40.40;64.00;;;;;;5091934;28;20035;-69
2023/08/24 08:32:37;;;;;;;7.13;4.28;;;41.30;65.20;;;;;;5090538;28;20390;-69
2023/08/24 08:35:41;;;;;;;8.88;5.00;;;42.10;63.40;;;;;;5073477;28;20067;-70
2023/08/24 08:38:45;;;;;;;10.02;4.88;;;40.70;63.60;;;;;;5089057;28;20062;-69
2023/08/24 08:41:49;;;;;;;5.32;4.47;;;42.40;63.20;;;;;;5096340;28;20050;-69
2023/08/24 08:44:55;;;;;;;7.32;4.45;;;44.00;62.30;;;;;;5095789;28;20047;-70
2023/08/24 08:48:00;;;;;;;10.35;4.13;;;44.90;61.20;;;;;;5088573;28;20039;-70
2023/08/24 08:51:05;;;;;;;15.20;4.63;;;45.60;59.60;;;;;;5095909;28;20036;-69
2023/08/24 08:54:09;;;;;;;11.27;4.22;;;44.80;58.40;;;;;;5091256;28;20046;-68
2023/08/24 08:57:16;;;;;;;5.82;4.28;;;44.70;58.90;;;;;;5082357;28;20042;-69
2023/08/24 09:00:21;;;;;;;7.57;3.97;;;45.60;57.50;;;;;;5094115;28;20047;-70
2023/08/24 09:03:28;;;;;;;32.75;6.43;;;46.10;57.60;;;;;;5088413;28;20066;-69
2023/08/24 09:06:33;;;;;;;17.55;5.50;;;46.40;57.30;;;;;;5101632;28;20046;-69
2023/08/24 09:09:39;;;;;;;4.20;2.97;;;47.20;57.10;;;;;;5093170;28;20046;-69
2023/08/24 09:12:43;;;;;;;5.38;2.78;;;48.10;54.30;;;;;;5088146;28;20398;-69
2023/08/24 09:15:47;;;;;;;7.63;3.33;;;47.80;51.20;;;;;;5087289;28;20035;-70
2023/08/24 09:18:51;;;;;;;7.55;2.60;;;48.60;50.40;;;;;;5087339;28;20051;-69
2023/08/24 09:22:00;;;;;;;4.50;3.00;;;48.10;50.20;;;;;;5087837;28;20039;-68
2023/08/24 09:25:06;;;;;;;5.03;2.47;;;49.10;51.50;;;;;;5093601;28;20655;-69
2023/08/24 09:28:10;;;;;;;5.40;2.70;;;50.90;49.10;;;;;;5093825;28;20051;-67
2023/08/24 09:31:14;;;;;;;6.55;3.08;;;51.50;48.20;;;;;;5079895;28;20526;-68
2023/08/24 09:34:26;;;;;;;5.88;2.72;;;51.70;49.30;;;;;;5093224;28;20398;-68
2023/08/24 09:37:34;;;;;;;4.95;2.50;;;48.90;47.10;;;;;;5090024;28;20378;-69
2023/08/24 09:40:39;;;;;;;5.72;2.80;;;47.30;49.60;;;;;;5085368;28;20047;-69
2023/08/24 09:43:43;;;;;;;3.22;2.38;;;50.10;49.10;;;;;;5090415;28;20035;-69
2023/08/24 09:46:47;;;;;;;2.85;2.20;;;51.10;47.40;;;;;;5084251;28;20051;-69
2023/08/24 09:49:52;;;;;;;3.85;2.70;;;49.30;47.40;;;;;;5089276;28;20043;-69
2023/08/24 09:52:59;;;;;;;2.88;2.03;;;47.40;47.90;;;;;;5090958;28;20047;-70
2023/08/24 09:56:05;;;;;;;2.90;2.60;;;49.40;47.60;;;;;;5089183;28;20047;-70
2023/08/24 09:59:18;;;;;;;5.55;2.70;;;47.60;46.80;;;;;;5091223;28;20047;-69
2023/08/24 10:02:24;;;;;;;7.07;2.45;;;48.50;48.00;;;;;;5084615;28;20055;-68
2023/08/24 10:05:31;;;;;;;3.85;2.40;;;48.40;48.00;;;;;;5083577;28;20047;-69
2023/08/24 10:08:47;;;;;;;5.13;2.92;;;50.40;48.00;;;;;;5090534;28;20379;-69
2023/08/24 10:11:55;;;;;;;3.92;2.85;;;52.50;47.10;;;;;;5092496;28;20490;-69
2023/08/24 10:15:03;;;;;;;10.98;3.58;;;54.40;46.60;;;;;;5089967;28;20051;-69
2023/08/24 10:18:07;;;;;;;5.50;2.92;;;54.30;45.30;;;;;;5092857;28;20055;-70
2023/08/24 10:21:11;;;;;;;2.80;2.30;;;54.20;45.80;;;;;;5095010;28;20055;-69
2023/08/24 10:24:16;;;;;;;3.30;2.50;;;55.20;45.50;;;;;;5090191;28;20043;-69
2023/08/24 10:27:26;;;;;;;3.40;2.50;;;55.70;44.80;;;;;;5092689;28;20040;-69
2023/08/24 10:30:30;;;;;;;3.25;2.40;;;55.20;45.10;;;;;;5081015;28;20039;-68
2023/08/24 10:33:36;;;;;;;3.65;2.80;;;54.60;45.40;;;;;;5076036;28;20385;-68
2023/08/24 10:36:41;;;;;;;4.57;2.88;;;52.50;45.20;;;;;;5071344;28;20388;-69
2023/08/24 10:39:46;;;;;;;4.80;2.63;;;51.60;46.20;;;;;;5077465;28;20051;-69
2023/08/24 10:42:50;;;;;;;3.60;2.38;;;53.20;46.50;;;;;;5086199;28;20150;-70
2023/08/24 10:45:58;;;;;;;6.15;2.80;;;53.70;45.60;;;;;;5093982;28;20048;-70
2023/08/24 10:49:04;;;;;;;13.98;3.97;;;51.30;45.10;;;;;;5090410;28;20497;-69
2023/08/24 10:52:21;;;;;;;5.75;2.72;;;51.60;46.50;;;;;;5090917;28;20043;-70
2023/08/24 10:55:27;;;;;;;7.03;3.00;;;52.70;45.90;;;;;;5096135;28;20039;-68
2023/08/24 10:58:34;;;;;;;3.53;3.22;;;52.10;45.00;;;;;;5090782;28;20055;-69
2023/08/24 11:01:40;;;;;;;8.68;2.92;;;51.70;45.70;;;;;;5085794;28;20046;-69
2023/08/24 11:05:06;;;;;;;2.70;2.50;;;52.70;45.40;;;;;;5090682;28;20055;-69
2023/08/24 11:08:11;;;;;;;4.22;2.88;;;52.50;45.20;;;;;;5091639;28;20051;-69
2023/08/24 11:11:25;;;;;;;6.22;2.85;;;52.30;44.80;;;;;;5090770;28;20498;-69
2023/08/24 11:14:30;;;;;;;3.80;3.35;;;53.70;44.50;;;;;;5090405;28;20027;-70
2023/08/24 11:17:34;;;;;;;7.55;3.45;;;47.70;45.80;;;;;;5097154;28;20055;-71
2023/08/24 11:20:46;;;;;;;4.65;3.60;;;47.00;47.00;;;;;;5097175;28;20078;-70
2023/08/24 11:23:50;;;;;;;4.35;3.50;;;46.10;47.00;;;;;;5089292;28;20051;-68
2023/08/24 11:26:54;;;;;;;6.93;3.30;;;49.00;46.60;;;;;;5092118;28;20043;-69
2023/08/24 11:30:00;;;;;;;4.53;3.00;;;51.10;46.00;;;;;;5093974;28;20046;-69
2023/08/24 11:33:04;;;;;;;5.22;2.90;;;51.90;45.40;;;;;;5088287;28;20047;-69
2023/08/24 12:38:36;;;;;;;5.13;3.50;;;50.60;46.10;;;;;;5092272;28;20040;-68
2023/08/24 12:41:41;;;;;;;3.88;3.47;;;48.30;45.60;;;;;;5094052;28;20055;-69
2023/08/24 12:44:45;;;;;;;5.10;3.58;;;48.20;46.70;;;;;;5096485;28;20047;-71
2023/08/24 12:47:49;;;;;;;6.00;3.88;;;46.80;45.60;;;;;;5089668;28;20043;-69
2023/08/24 12:50:53;;;;;;;4.32;3.92;;;44.90;47.50;;;;;;5088813;28;20055;-68
2023/08/24 12:53:57;;;;;;;4.20;3.28;;;47.40;46.90;;;;;;5081268;28;20506;-68
2023/08/24 12:57:01;;;;;;;3.50;3.20;;;49.80;46.60;;;;;;5093214;28;20047;-68
2023/08/24 13:00:06;;;;;;;5.20;3.10;;;50.90;45.60;;;;;;5092543;28;20394;-68
2023/08/24 13:03:11;;;;;;;4.45;3.15;;;51.60;45.00;;;;;;5092444;28;20050;-68
2023/08/24 13:06:15;;;;;;;6.45;3.15;;;52.40;45.20;;;;;;5092628;28;20047;-68
2023/08/24 13:09:19;;;;;;;4.28;3.20;;;50.40;44.70;;;;;;5095300;28;20038;-67
2023/08/24 13:12:24;;;;;;;5.43;3.03;;;50.40;46.00;;;;;;5092401;28;20047;-68
2023/08/24 13:15:28;;;;;;;3.20;2.90;;;51.00;45.30;;;;;;5092157;28;20350;-67
2023/08/24 13:18:31;;;;;;;6.43;3.65;;;51.30;45.30;;;;;;5092710;28;20051;-68
2023/08/24 13:21:35;;;;;;;4.82;2.95;;;51.00;45.60;;;;;;5092212;28;20047;-67
2023/08/24 13:24:39;;;;;;;3.88;3.28;;;50.70;45.60;;;;;;5092291;28;20054;-67
2023/08/24 13:27:43;;;;;;;7.72;4.38;;;50.70;45.70;;;;;;5092315;28;20035;-68
2023/08/24 13:30:48;;;;;;;4.68;3.63;;;50.30;45.60;;;;;;5079800;28;20044;-70
2023/08/24 13:33:52;;;;;;;5.07;3.53;;;48.80;45.40;;;;;;5091870;28;20039;-70
2023/08/24 13:36:57;;;;;;;7.60;4.20;;;47.80;46.60;;;;;;5092492;28;20042;-69
2023/08/24 13:40:03;;;;;;;7.55;4.38;;;46.10;47.20;;;;;;5091957;28;20055;-68
2023/08/24 13:43:07;;;;;;;5.78;4.35;;;43.30;48.70;;;;;;5091993;28;20383;-69
2023/08/24 13:46:11;;;;;;;5.93;5.32;;;43.00;50.20;;;;;;5091909;28;20055;-70
2023/08/24 13:49:17;;;;;;;6.68;4.00;;;43.90;49.60;;;;;;5091910;28;20402;-68
2023/08/24 13:52:20;;;;;;;6.22;4.53;;;44.60;49.30;;;;;;5091268;28;20043;-70
2023/08/24 13:55:24;;;;;;;4.43;4.03;;;44.20;49.10;;;;;;5091926;28;20394;-70
2023/08/24 13:58:28;;;;;;;6.75;4.82;;;44.10;48.80;;;;;;5091838;28;20039;-70
2023/08/24 14:01:33;;;;;;;6.50;4.55;;;45.00;49.20;;;;;;5091599;28;20043;-70
2023/08/24 14:04:37;;;;;;;8.07;4.43;;;44.70;48.80;;;;;;5085022;28;20039;-70
2023/08/24 14:07:41;;;;;;;7.95;5.30;;;44.70;49.20;;;;;;5091542;28;20258;-69
2023/08/24 14:10:48;;;;;;;5.95;4.90;;;44.60;49.10;;;;;;5091267;28;20043;-67
2023/08/24 14:13:52;;;;;;;7.20;5.03;;;44.70;49.20;;;;;;5090897;28;20043;-68
2023/08/24 14:16:56;;;;;;;9.45;4.65;;;44.30;49.70;;;;;;5091280;28;20039;-68
2023/08/24 14:20:00;;;;;;;7.70;4.90;;;44.10;49.70;;;;;;5091244;28;20054;-70
2023/08/24 14:23:04;;;;;;;7.13;4.80;;;43.50;49.60;;;;;;5091075;28;20039;-70
2023/08/24 14:26:10;;;;;;;6.13;4.80;;;43.10;49.60;;;;;;5091134;28;20070;-70
2023/08/24 14:29:14;;;;;;;6.20;4.22;;;43.70;49.50;;;;;;5091504;28;20051;-69
2023/08/24 14:32:18;;;;;;;8.98;4.85;;;44.30;49.60;;;;;;5090525;28;20039;-69
2023/08/24 14:35:22;;;;;;;5.80;4.47;;;44.30;50.00;;;;;;5090303;28;20536;-69
2023/08/24 14:38:26;;;;;;;8.20;5.05;;;43.90;50.20;;;;;;5091234;28;20391;-69
2023/08/24 14:41:30;;;;;;;5.75;5.15;;;42.90;49.80;;;;;;5090622;28;20507;-70
2023/08/24 14:44:35;;;;;;;4.93;4.28;;;43.00;50.10;;;;;;5091035;28;20138;-69
2023/08/24 14:47:39;;;;;;;7.32;4.85;;;43.10;50.50;;;;;;5091108;28;20071;-70
2023/08/24 14:50:43;;;;;;;6.25;5.18;;;43.30;50.70;;;;;;5078208;28;20047;-70
2023/08/24 14:53:47;;;;;;;8.80;5.60;;;43.30;50.70;;;;;;5090702;28;20390;-70
2023/08/24 14:56:51;;;;;;;7.07;5.20;;;42.90;50.90;;;;;;5078004;28;20051;-70
2023/08/24 14:59:55;;;;;;;10.70;5.30;;;42.50;50.90;;;;;;5090755;28;20050;-69
2023/08/24 15:02:59;;;;;;;8.90;4.72;;;42.50;50.90;;;;;;5090379;28;20044;-70
2023/08/24 15:06:06;;;;;;;9.05;4.80;;;41.80;50.90;;;;;;5090852;28;20062;-70
2023/08/24 15:09:11;;;;;;;6.30;5.22;;;41.20;51.50;;;;;;5090253;28;20035;-70
2023/08/24 15:12:14;;;;;;;6.63;4.88;;;41.10;52.70;;;;;;5090463;28;20077;-70
2023/08/24 15:15:18;;;;;;;8.45;5.20;;;40.90;51.50;;;;;;5090743;28;20058;-69
2023/08/24 15:18:26;;;;;;;11.27;5.03;;;40.60;51.80;;;;;;5090858;28;20390;-69
2023/08/24 15:21:30;;;;;;;5.97;4.95;;;40.70;51.70;;;;;;5090288;28;20320;-70
2023/08/24 15:24:34;;;;;;;10.55;5.35;;;40.40;52.40;;;;;;5090588;28;20043;-68
2023/08/24 15:27:38;;;;;;;9.35;4.82;;;40.10;52.30;;;;;;5091088;28;20055;-70
2023/08/24 15:30:42;;;;;;;5.45;4.95;;;39.60;54.00;;;;;;5090324;28;20043;-69
2023/08/24 15:33:53;;;;;;;8.18;5.15;;;39.50;52.50;;;;;;5091044;28;20379;-69
2023/08/24 15:36:57;;;;;;;8.25;5.10;;;39.30;54.10;;;;;;5090605;28;20043;-70
2023/08/24 15:40:04;;;;;;;8.05;5.18;;;39.80;53.20;;;;;;5090474;28;20038;-70
2023/08/24 15:43:09;;;;;;;6.50;5.38;;;39.50;53.20;;;;;;5090076;28;20039;-70
2023/08/24 15:46:16;;;;;;;6.20;5.45;;;39.10;52.90;;;;;;5092012;28;20051;-69
2023/08/24 15:49:22;;;;;;;7.43;5.25;;;39.50;53.50;;;;;;5094387;28;20489;-69
2023/08/24 15:52:26;;;;;;;6.47;5.40;;;38.90;53.20;;;;;;5094130;28;20504;-69
2023/08/24 15:55:31;;;;;;;6.30;4.68;;;38.70;53.20;;;;;;5094195;28;20422;-68
2023/08/24 15:58:35;;;;;;;8.07;5.15;;;39.00;53.80;;;;;;5098046;28;20051;-69
2023/08/24 16:01:39;;;;;;;7.45;5.18;;;39.10;53.50;;;;;;5093818;28;20047;-69
2023/08/24 16:04:43;;;;;;;10.23;5.00;;;39.30;54.30;;;;;;5093961;28;20051;-69
2023/08/24 16:07:47;;;;;;;8.07;5.70;;;39.40;54.10;;;;;;5094463;28;20047;-69
2023/08/24 16:10:54;;;;;;;6.75;5.65;;;39.10;53.80;;;;;;5094169;28;20486;-69
2023/08/24 16:14:02;;;;;;;6.70;5.28;;;39.00;53.80;;;;;;5094054;28;20047;-69
2023/08/24 16:17:06;;;;;;;5.75;4.65;;;39.10;52.90;;;;;;5094040;28;20043;-70
2023/08/24 16:20:11;;;;;;;9.10;5.57;;;39.10;53.20;;;;;;5093817;28;20395;-70
2023/08/24 16:23:15;;;;;;;10.20;5.32;;;39.10;53.10;;;;;;5093713;28;20043;-69
2023/08/24 16:26:22;;;;;;;8.63;5.28;;;39.00;54.00;;;;;;5093580;28;20281;-69
2023/08/24 16:29:29;;;;;;;10.15;5.53;;;38.90;54.00;;;;;;5093628;28;20395;-69
2023/08/24 16:32:33;;;;;;;10.65;5.50;;;38.90;53.90;;;;;;5093204;28;20059;-70
2023/08/24 16:35:37;;;;;;;10.77;5.00;;;39.00;54.80;;;;;;5093224;28;20055;-69
2023/08/24 16:38:42;;;;;;;6.57;4.90;;;38.90;55.20;;;;;;5093362;28;20059;-69
2023/08/24 16:41:45;;;;;;;6.82;5.15;;;38.90;54.10;;;;;;5092871;28;20430;-69
2023/08/24 16:44:50;;;;;;;6.30;4.82;;;38.90;54.10;;;;;;5064712;28;20039;-70
2023/08/24 16:47:56;;;;;;;8.05;4.95;;;38.80;54.60;;;;;;5088778;28;20040;-70
2023/08/24 16:51:03;;;;;;;11.55;5.47;;;38.70;54.70;;;;;;5083568;28;20040;-70
2023/08/24 16:54:10;;;;;;;8.43;5.75;;;38.60;54.70;;;;;;5072677;28;20039;-69
2023/08/24 16:57:14;;;;;;;6.57;5.10;;;38.40;55.20;;;;;;5072413;28;20054;-69
2023/08/24 17:00:19;;;;;;;11.50;5.50;;;38.40;55.70;;;;;;5072927;28;20052;-70